Time;durP1;ratioP1;P1;durP2;ratioP2;P2;SDS_P1;SDS_P2;PMS_P1;PMS_P2;Temp;Humidity;BMP_temperature;BMP_pressure;BME280_temperature;BME280_humidity;BME280_pressure;Samples;Min_cycle;Max_cycle;Signal;HPM_P1;HPM_P2
2022/05/15 00:01:11;;;;;;;5.00;3.17;;;12.50;88.10;;;;;;4157034;28;20792;-73
2022/05/15 00:03:19;;;;;;;4.13;2.35;;;12.50;88.10;;;;;;4157011;28;20046;-74
2022/05/15 00:05:20;;;;;;;4.57;2.60;;;12.50;88.20;;;;;;4159777;28;20125;-73
2022/05/15 00:07:22;;;;;;;3.08;2.50;;;12.50;88.10;;;;;;4156857;28;20761;-74
2022/05/15 00:09:24;;;;;;;2.20;1.98;;;12.40;87.90;;;;;;4154237;28;20090;-74
2022/05/15 00:11:26;;;;;;;4.40;2.15;;;12.40;87.20;;;;;;4154271;28;20058;-74
2022/05/15 00:13:29;;;;;;;4.88;3.13;;;12.30;88.70;;;;;;4158328;28;20177;-74
2022/05/15 00:15:31;;;;;;;3.58;2.72;;;12.40;89.00;;;;;;4156593;28;20097;-74
2022/05/15 00:17:32;;;;;;;5.15;2.95;;;12.40;88.00;;;;;;4157715;28;20062;-74
2022/05/15 00:19:35;;;;;;;2.67;2.17;;;12.40;89.00;;;;;;4156831;28;20058;-74
2022/05/15 00:21:37;;;;;;;6.00;2.00;;;12.40;87.20;;;;;;4157929;28;20064;-74
2022/05/15 00:23:38;;;;;;;2.70;2.50;;;12.50;85.90;;;;;;4156389;28;20751;-74
2022/05/15 00:25:40;;;;;;;4.82;2.33;;;12.50;86.80;;;;;;4158013;28;20104;-74
2022/05/15 00:27:42;;;;;;;4.55;3.38;;;12.60;86.90;;;;;;4158923;28;20057;-74
2022/05/15 00:29:44;;;;;;;5.85;4.18;;;12.60;86.30;;;;;;4156175;28;20057;-73
2022/05/15 00:31:45;;;;;;;14.02;6.82;;;12.60;86.60;;;;;;4155749;28;20062;-73
2022/05/15 00:33:47;;;;;;;10.00;5.85;;;12.60;86.60;;;;;;4153640;28;20058;-72
2022/05/15 00:35:49;;;;;;;9.40;4.72;;;12.60;86.70;;;;;;4160194;28;20065;-73
2022/05/15 00:37:50;;;;;;;3.45;2.35;;;12.50;87.20;;;;;;4160166;28;20065;-73
2022/05/15 00:39:52;;;;;;;4.20;3.03;;;12.50;87.30;;;;;;4154673;28;20936;-73
2022/05/15 00:41:54;;;;;;;9.27;5.72;;;12.50;88.00;;;;;;4153707;28;20221;-72
2022/05/15 00:43:58;;;;;;;8.75;6.45;;;12.40;88.00;;;;;;4152612;28;20065;-73
2022/05/15 00:46:00;;;;;;;12.40;7.40;;;12.40;88.40;;;;;;4169779;28;20062;-73
2022/05/15 00:48:02;;;;;;;15.73;8.32;;;12.40;88.20;;;;;;4152850;28;20834;-73
2022/05/15 00:50:06;;;;;;;12.60;5.65;;;12.30;88.40;;;;;;4149930;28;20065;-73
2022/05/15 00:52:12;;;;;;;10.95;6.53;;;12.20;88.70;;;;;;4150576;28;20064;-73
2022/05/15 00:54:32;;;;;;;13.93;8.57;;;12.20;88.70;;;;;;4153290;28;20068;-73
2022/05/15 00:56:40;;;;;;;14.43;7.90;;;12.10;89.40;;;;;;4151526;28;20090;-73
2022/05/15 00:58:48;;;;;;;12.95;7.10;;;12.10;89.30;;;;;;4153313;28;20434;-73
2022/05/15 01:00:50;;;;;;;7.90;5.53;;;12.10;89.70;;;;;;4151366;28;20068;-72
2022/05/15 01:03:04;;;;;;;7.25;4.95;;;12.00;89.70;;;;;;4149647;28;20136;-73
2022/05/15 01:05:08;;;;;;;8.35;4.65;;;12.00;90.40;;;;;;4152930;28;20132;-72
2022/05/15 01:07:09;;;;;;;10.95;6.47;;;12.00;90.70;;;;;;4153066;28;20157;-74
2022/05/15 01:09:13;;;;;;;15.27;8.52;;;12.00;90.70;;;;;;4154948;28;20153;-74
2022/05/15 01:11:18;;;;;;;12.90;8.07;;;12.00;90.70;;;;;;4151040;28;20058;-73
2022/05/15 01:13:22;;;;;;;11.63;7.85;;;12.00;90.60;;;;;;4154256;28;20903;-72
2022/05/15 01:15:26;;;;;;;17.15;9.23;;;12.00;90.60;;;;;;4154185;28;20065;-72
2022/05/15 01:17:28;;;;;;;26.60;12.52;;;12.00;90.70;;;;;;4153829;28;20054;-74
2022/05/15 01:19:33;;;;;;;14.25;7.93;;;11.90;90.50;;;;;;4156755;28;20058;-74
2022/05/15 01:21:40;;;;;;;14.70;7.18;;;11.80;90.80;;;;;;4153346;28;20801;-74
2022/05/15 01:23:41;;;;;;;8.07;5.50;;;11.80;91.20;;;;;;4155317;28;20062;-74
2022/05/15 01:25:44;;;;;;;6.18;3.13;;;11.80;91.20;;;;;;4153522;28;20058;-74
2022/05/15 01:28:00;;;;;;;15.48;4.82;;;11.80;91.50;;;;;;4156328;28;20884;-74
2022/05/15 01:30:05;;;;;;;11.13;5.45;;;11.80;91.60;;;;;;4158796;28;20057;-74
2022/05/15 01:32:07;;;;;;;3.33;3.03;;;11.80;91.80;;;;;;4156138;28;20800;-73
2022/05/15 01:34:10;;;;;;;6.63;4.18;;;11.80;91.70;;;;;;4156635;28;20049;-74
2022/05/15 01:36:12;;;;;;;7.22;2.95;;;11.80;91.50;;;;;;4156114;28;21133;-74
2022/05/15 01:38:14;;;;;;;4.45;2.97;;;11.80;91.50;;;;;;4155998;28;20097;-73
2022/05/15 01:40:17;;;;;;;12.30;6.75;;;11.80;91.70;;;;;;4158282;28;20654;-73
2022/05/15 01:42:19;;;;;;;7.35;4.75;;;11.80;91.60;;;;;;4154391;28;20065;-73
2022/05/15 01:44:21;;;;;;;10.15;5.10;;;11.70;92.00;;;;;;4155449;28;20061;-73
2022/05/15 01:46:25;;;;;;;9.23;4.70;;;11.70;92.10;;;;;;4154988;28;20062;-73
2022/05/15 01:48:29;;;;;;;8.68;4.65;;;11.70;92.00;;;;;;4155052;28;20057;-74
2022/05/15 01:50:31;;;;;;;17.60;9.25;;;11.70;92.10;;;;;;4154390;28;20062;-72
2022/05/15 01:52:33;;;;;;;16.33;8.40;;;11.70;92.40;;;;;;4153023;28;20861;-72
2022/05/15 01:54:35;;;;;;;14.65;9.85;;;11.70;92.40;;;;;;4157283;28;20062;-72
2022/05/15 01:56:37;;;;;;;13.43;9.63;;;11.70;92.20;;;;;;4153484;28;20064;-74
2022/05/15 01:58:40;;;;;;;21.58;13.73;;;11.70;92.30;;;;;;4151166;28;20136;-72
2022/05/15 02:00:41;;;;;;;17.10;12.00;;;11.70;92.30;;;;;;4160209;28;20054;-73
2022/05/15 02:02:43;;;;;;;21.70;14.20;;;11.70;92.10;;;;;;4153356;28;20079;-73
2022/05/15 02:04:45;;;;;;;17.85;13.07;;;11.70;92.00;;;;;;4154644;28;20062;-74
2022/05/15 02:06:47;;;;;;;15.75;11.65;;;11.70;92.10;;;;;;4154149;28;20061;-75
2022/05/15 02:08:49;;;;;;;28.17;17.02;;;11.70;92.00;;;;;;4152520;28;20207;-74
2022/05/15 02:10:50;;;;;;;38.75;23.50;;;11.60;92.10;;;;;;4151206;28;20065;-73
2022/05/15 02:12:52;;;;;;;60.50;35.95;;;11.40;92.50;;;;;;4151681;28;20054;-73
2022/05/15 02:14:54;;;;;;;51.28;32.80;;;11.20;92.70;;;;;;4153448;28;20066;-73
2022/05/15 02:16:55;;;;;;;36.30;20.38;;;11.00;93.30;;;;;;4152499;28;20596;-74
2022/05/15 02:18:57;;;;;;;18.20;8.93;;;11.00;93.80;;;;;;4151706;28;20149;-74
2022/05/15 02:20:59;;;;;;;20.48;13.23;;;11.00;94.00;;;;;;4160342;28;20054;-74
2022/05/15 02:23:00;;;;;;;18.05;11.40;;;11.00;94.10;;;;;;4161080;28;20054;-74
2022/05/15 02:25:02;;;;;;;4.93;4.40;;;11.00;94.50;;;;;;4153609;28;20066;-73
2022/05/15 02:27:04;;;;;;;8.15;5.25;;;11.00;94.70;;;;;;4158855;28;21163;-74
2022/05/15 02:29:07;;;;;;;20.42;12.25;;;11.10;94.40;;;;;;4153912;28;20947;-73
2022/05/15 02:31:09;;;;;;;11.57;7.03;;;11.10;94.20;;;;;;4157705;28;20058;-74
2022/05/15 02:33:10;;;;;;;15.50;8.48;;;11.20;94.00;;;;;;4160225;28;20050;-74
2022/05/15 02:35:12;;;;;;;28.55;16.08;;;11.10;94.10;;;;;;4154948;28;20070;-74
2022/05/15 02:37:14;;;;;;;14.93;9.52;;;11.10;94.50;;;;;;4161234;28;20058;-74
2022/05/15 02:39:16;;;;;;;12.02;7.22;;;11.10;94.60;;;;;;4156658;28;20061;-74
2022/05/15 02:41:17;;;;;;;16.83;9.57;;;11.10;94.40;;;;;;4160922;28;20066;-75
2022/05/15 02:43:19;;;;;;;22.08;13.85;;;11.20;94.70;;;;;;4161123;28;20153;-74
2022/05/15 02:45:21;;;;;;;26.60;13.48;;;11.20;94.50;;;;;;4157267;28;20061;-74
2022/05/15 02:47:24;;;;;;;13.50;9.20;;;11.20;94.20;;;;;;4159985;28;20062;-74
2022/05/15 02:51:46;;;;;;;16.42;4.90;;;11.20;94.10;;;;;;4159112;28;20864;-74
2022/05/15 02:53:48;;;;;;;22.92;12.32;;;11.20;94.00;;;;;;4158300;28;20062;-74
2022/05/15 02:55:50;;;;;;;20.55;10.00;;;11.20;94.10;;;;;;4157515;28;20065;-74
2022/05/15 02:57:52;;;;;;;19.35;10.00;;;11.20;94.20;;;;;;4156635;28;20054;-74
2022/05/15 02:59:53;;;;;;;20.50;10.75;;;11.10;94.30;;;;;;4158244;28;20498;-73
2022/05/15 03:01:55;;;;;;;25.98;14.32;;;11.00;94.80;;;;;;4157781;28;20184;-74
2022/05/15 03:03:57;;;;;;;16.60;10.88;;;10.90;94.80;;;;;;4159745;28;20884;-73
2022/05/15 03:05:59;;;;;;;11.63;8.48;;;10.80;94.50;;;;;;4156951;28;20065;-75
2022/05/15 03:08:01;;;;;;;22.40;12.98;;;10.70;95.20;;;;;;4155614;28;20058;-75
2022/05/15 03:10:04;;;;;;;7.25;5.32;;;10.70;95.30;;;;;;4158410;28;20125;-74
2022/05/15 03:12:06;;;;;;;4.10;3.35;;;10.70;95.40;;;;;;4156042;28;20057;-75
2022/05/15 03:14:08;;;;;;;3.60;2.05;;;10.80;95.40;;;;;;4156761;28;20165;-75
2022/05/15 03:16:11;;;;;;;3.22;2.78;;;10.80;95.10;;;;;;4157593;28;20168;-75
2022/05/15 03:18:13;;;;;;;4.05;3.47;;;10.80;95.40;;;;;;4154269;28;20065;-75
2022/05/15 03:20:17;;;;;;;6.03;4.50;;;10.90;95.20;;;;;;4157245;28;20157;-74
2022/05/15 03:22:20;;;;;;;5.88;3.00;;;10.90;95.30;;;;;;4153291;28;20062;-74
2022/05/15 03:24:22;;;;;;;4.15;2.35;;;10.90;95.00;;;;;;4152145;28;20058;-74
2022/05/15 03:26:25;;;;;;;13.07;7.22;;;10.90;94.80;;;;;;4162246;28;20058;-74
2022/05/15 03:28:27;;;;;;;7.93;6.38;;;10.90;94.90;;;;;;4153439;28;20065;-74
2022/05/15 03:30:29;;;;;;;5.32;4.50;;;10.90;95.00;;;;;;4152991;28;20062;-74
2022/05/15 03:32:30;;;;;;;8.38;5.97;;;10.90;95.10;;;;;;4150005;28;20064;-74
2022/05/15 03:34:32;;;;;;;4.82;3.88;;;10.90;94.70;;;;;;4151746;28;20063;-74
2022/05/15 03:36:36;;;;;;;6.65;6.05;;;10.90;94.60;;;;;;4150723;28;20058;-73
2022/05/15 03:38:40;;;;;;;4.85;4.40;;;10.90;94.60;;;;;;4152994;28;20130;-74
2022/05/15 03:40:43;;;;;;;14.13;7.63;;;10.80;94.80;;;;;;4152770;28;20169;-74
2022/05/15 03:42:44;;;;;;;7.53;6.93;;;10.70;94.80;;;;;;4155894;28;20663;-74
2022/05/15 03:44:46;;;;;;;11.57;10.40;;;10.60;95.30;;;;;;4151488;28;20182;-74
2022/05/15 03:46:48;;;;;;;8.30;7.43;;;10.50;95.70;;;;;;4152418;28;20843;-73
2022/05/15 03:48:50;;;;;;;5.20;4.78;;;10.50;95.80;;;;;;4155680;28;20061;-74
2022/05/15 03:50:51;;;;;;;6.15;5.57;;;10.60;95.80;;;;;;4154497;28;20061;-73
2022/05/15 03:52:54;;;;;;;5.97;5.47;;;10.50;95.60;;;;;;4154772;28;20144;-74
2022/05/15 03:54:55;;;;;;;3.47;3.17;;;10.50;96.00;;;;;;4152732;28;20054;-74
2022/05/15 03:56:57;;;;;;;6.55;5.97;;;10.50;96.30;;;;;;4154250;28;20059;-74
2022/05/15 03:58:58;;;;;;;5.35;4.88;;;10.50;96.30;;;;;;4156777;28;20896;-74
2022/05/15 04:01:01;;;;;;;3.53;3.22;;;10.60;96.20;;;;;;4156497;28;20157;-73
2022/05/15 04:03:03;;;;;;;4.07;3.17;;;10.70;95.70;;;;;;4156569;28;20152;-74
2022/05/15 04:05:07;;;;;;;4.47;3.00;;;10.70;95.60;;;;;;4157436;28;20167;-73
2022/05/15 04:07:08;;;;;;;3.97;2.92;;;10.80;95.30;;;;;;4156585;28;20050;-73
2022/05/15 04:09:10;;;;;;;2.13;1.50;;;10.80;94.80;;;;;;4156244;28;20174;-74
2022/05/15 04:11:12;;;;;;;2.15;1.95;;;10.80;94.80;;;;;;4157934;28;20096;-74
2022/05/15 04:13:13;;;;;;;3.00;1.73;;;10.70;95.30;;;;;;4156332;28;20064;-75
2022/05/15 04:15:15;;;;;;;3.10;2.80;;;10.70;95.40;;;;;;4155919;28;20066;-73
2022/05/15 04:17:17;;;;;;;5.43;2.05;;;10.70;95.50;;;;;;4158902;28;20835;-74
2022/05/15 04:19:19;;;;;;;2.40;1.90;;;10.70;95.70;;;;;;4161335;28;20152;-73
2022/05/15 04:21:21;;;;;;;2.40;1.75;;;10.70;95.60;;;;;;4158873;28;20089;-73
2022/05/15 04:23:22;;;;;;;1.92;1.40;;;10.80;95.40;;;;;;4160674;28;20064;-74
2022/05/15 04:25:24;;;;;;;2.95;1.15;;;10.80;95.60;;;;;;4160031;28;20088;-74
2022/05/15 04:27:26;;;;;;;2.53;1.33;;;10.80;96.00;;;;;;4162023;28;20686;-73
2022/05/15 04:29:28;;;;;;;4.70;1.20;;;10.90;95.70;;;;;;4159067;28;20081;-74
2022/05/15 04:31:30;;;;;;;2.92;1.48;;;10.90;95.80;;;;;;4161799;28;20097;-73
2022/05/15 04:33:32;;;;;;;2.65;1.85;;;11.00;95.90;;;;;;4159019;28;20061;-74
2022/05/15 04:35:34;;;;;;;1.40;1.30;;;11.10;95.90;;;;;;4161741;28;20066;-74
2022/05/15 04:37:36;;;;;;;1.42;1.33;;;11.10;95.60;;;;;;4160048;28;20131;-74
2022/05/15 04:39:38;;;;;;;1.33;1.23;;;11.20;95.50;;;;;;4158045;28;20064;-74
2022/05/15 04:41:40;;;;;;;2.47;1.70;;;11.30;95.50;;;;;;4159076;28;20065;-74
2022/05/15 04:43:41;;;;;;;1.35;1.25;;;11.30;95.60;;;;;;4156735;28;20053;-73
2022/05/15 04:45:43;;;;;;;2.30;1.55;;;11.40;95.50;;;;;;4155843;28;20062;-74
2022/05/15 04:47:46;;;;;;;5.78;1.50;;;11.40;95.10;;;;;;4154188;28;20138;-74
2022/05/15 04:49:49;;;;;;;2.80;1.30;;;11.50;94.90;;;;;;4151787;28;20678;-74
2022/05/15 04:51:51;;;;;;;1.80;1.10;;;11.70;95.50;;;;;;4149312;28;20153;-73
2022/05/15 04:53:54;;;;;;;3.05;1.10;;;11.80;95.00;;;;;;4159482;28;20065;-73
2022/05/15 04:55:55;;;;;;;3.95;1.10;;;11.90;94.90;;;;;;4149663;28;20192;-74
2022/05/15 04:57:57;;;;;;;10.93;2.72;;;12.00;94.70;;;;;;4149935;28;20089;-74
2022/05/15 04:59:59;;;;;;;4.68;1.55;;;12.10;94.60;;;;;;4152429;28;20066;-73
2022/05/15 05:02:01;;;;;;;4.88;1.50;;;12.10;94.20;;;;;;4153050;28;20057;-74
2022/05/15 05:04:03;;;;;;;3.20;1.88;;;12.20;94.10;;;;;;4160348;28;20789;-73
2022/05/15 05:06:05;;;;;;;1.42;1.30;;;12.30;93.80;;;;;;4152001;28;20153;-73
2022/05/15 05:08:09;;;;;;;3.33;1.23;;;12.40;93.70;;;;;;4155189;28;20061;-73
2022/05/15 05:10:12;;;;;;;3.95;1.13;;;12.50;93.20;;;;;;4154214;28;20062;-74
2022/05/15 05:12:14;;;;;;;1.65;1.48;;;12.70;93.40;;;;;;4158238;28;20224;-74
2022/05/15 05:14:16;;;;;;;3.08;1.10;;;12.70;93.50;;;;;;4156975;28;20582;-73
2022/05/15 05:16:18;;;;;;;1.40;1.10;;;12.80;93.00;;;;;;4154022;28;20833;-73
2022/05/15 05:18:20;;;;;;;3.30;1.67;;;12.90;93.50;;;;;;4157211;28;20080;-73
2022/05/15 05:20:22;;;;;;;1.50;1.20;;;13.00;92.90;;;;;;4156182;28;20051;-74
2022/05/15 05:22:24;;;;;;;1.75;1.30;;;13.10;92.80;;;;;;4155827;28;20285;-73
2022/05/15 05:24:26;;;;;;;2.58;1.42;;;13.20;91.40;;;;;;4156400;28;20782;-74
2022/05/15 05:26:27;;;;;;;1.23;1.13;;;13.30;91.20;;;;;;4156311;28;20181;-74
2022/05/15 05:28:29;;;;;;;1.20;1.05;;;13.40;90.40;;;;;;4155926;28;20078;-74
2022/05/15 05:30:32;;;;;;;2.72;1.30;;;13.50;90.00;;;;;;4156873;28;20880;-73
2022/05/15 05:32:33;;;;;;;3.28;2.33;;;13.60;89.00;;;;;;4157612;28;20084;-74
2022/05/15 05:34:35;;;;;;;6.97;1.70;;;13.70;88.20;;;;;;4153662;28;20058;-73
2022/05/15 05:36:37;;;;;;;3.78;1.42;;;13.90;85.80;;;;;;4152412;28;20054;-73
2022/05/15 05:38:39;;;;;;;3.60;1.40;;;14.00;84.50;;;;;;4156541;28;20062;-73
2022/05/15 05:40:41;;;;;;;1.45;1.33;;;14.10;83.50;;;;;;4151620;28;20863;-73
2022/05/15 05:42:43;;;;;;;3.17;2.10;;;14.20;83.50;;;;;;4157231;28;20068;-73
2022/05/15 05:44:44;;;;;;;2.15;1.55;;;14.40;83.90;;;;;;4152964;28;20163;-72
2022/05/15 05:46:46;;;;;;;2.67;1.83;;;14.50;82.50;;;;;;4151767;28;21040;-74
2022/05/15 05:48:48;;;;;;;3.17;2.53;;;14.60;81.50;;;;;;4150809;28;20066;-74
2022/05/15 05:50:50;;;;;;;2.80;2.00;;;14.70;79.90;;;;;;4152274;28;20078;-73
2022/05/15 05:52:53;;;;;;;6.00;2.58;;;14.80;79.20;;;;;;4153829;28;20065;-73
2022/05/15 05:54:55;;;;;;;4.50;2.83;;;15.00;78.70;;;;;;4157491;28;20065;-73
2022/05/15 05:56:58;;;;;;;4.25;2.38;;;15.10;78.60;;;;;;4151287;28;20803;-72
2022/05/15 05:58:59;;;;;;;3.15;1.55;;;15.30;78.60;;;;;;4150441;28;20785;-73
2022/05/15 06:01:01;;;;;;;6.05;2.13;;;15.40;77.40;;;;;;4153947;28;20069;-73
2022/05/15 06:05:23;;;;;;;3.53;1.77;;;15.60;76.40;;;;;;4153904;28;20065;-73
2022/05/15 06:07:27;;;;;;;5.00;2.28;;;15.80;75.90;;;;;;4154640;28;20160;-74
2022/05/15 06:09:28;;;;;;;4.30;1.80;;;15.80;75.60;;;;;;4157432;28;20152;-74
2022/05/15 06:11:33;;;;;;;1.92;1.75;;;15.90;75.60;;;;;;4155114;28;20063;-73
2022/05/15 06:13:35;;;;;;;2.78;2.13;;;16.00;76.00;;;;;;4157233;28;20058;-73
2022/05/15 06:15:37;;;;;;;4.15;2.00;;;16.10;75.90;;;;;;4158067;28;20068;-74
2022/05/15 06:17:39;;;;;;;3.80;1.98;;;16.20;74.80;;;;;;4157262;28;20861;-74
2022/05/15 06:19:41;;;;;;;2.33;1.90;;;16.30;75.10;;;;;;4158444;28;20172;-73
2022/05/15 06:21:44;;;;;;;3.25;1.90;;;16.30;74.10;;;;;;4191130;22;20073;-71
2022/05/15 06:23:45;;;;;;;2.70;1.73;;;16.40;74.70;;;;;;4174086;28;20057;-71
2022/05/15 06:25:47;;;;;;;3.30;1.75;;;16.50;74.60;;;;;;4172760;28;20148;-72
2022/05/15 06:27:49;;;;;;;3.65;2.42;;;16.50;72.70;;;;;;4169969;28;20117;-70
2022/05/15 06:29:51;;;;;;;2.63;1.30;;;16.50;73.00;;;;;;4169322;28;20087;-71
2022/05/15 06:31:52;;;;;;;1.85;1.58;;;16.60;73.80;;;;;;4173983;28;20053;-72
2022/05/15 06:33:54;;;;;;;2.58;1.77;;;16.70;73.70;;;;;;4173738;28;20058;-72
2022/05/15 06:35:58;;;;;;;2.75;1.65;;;16.70;74.80;;;;;;4170315;28;20100;-70
2022/05/15 06:38:01;;;;;;;4.95;2.38;;;16.80;74.60;;;;;;4171916;28;20062;-72
2022/05/15 06:40:04;;;;;;;3.80;1.35;;;16.80;74.60;;;;;;4174786;28;20054;-72
2022/05/15 06:42:06;;;;;;;2.95;1.70;;;17.00;74.10;;;;;;4172964;28;20144;-72
2022/05/15 06:44:08;;;;;;;2.35;1.33;;;17.10;70.30;;;;;;4173899;28;20636;-71
2022/05/15 06:46:10;;;;;;;3.08;1.65;;;17.10;70.10;;;;;;4178884;28;21031;-72
2022/05/15 06:48:12;;;;;;;3.95;1.73;;;17.10;71.70;;;;;;4176268;28;20818;-71
2022/05/15 06:50:14;;;;;;;1.95;1.13;;;17.20;71.60;;;;;;4181307;28;20054;-72
2022/05/15 06:52:16;;;;;;;1.55;1.10;;;17.20;71.80;;;;;;4177566;28;21052;-72
2022/05/15 06:54:18;;;;;;;1.63;1.08;;;17.30;71.90;;;;;;4172792;28;20900;-72
2022/05/15 06:58:40;;;;;;;1.70;1.08;;;17.40;70.30;;;;;;4174838;28;20053;-72
2022/05/15 07:00:42;;;;;;;3.45;1.48;;;17.50;70.20;;;;;;4173773;28;20886;-73
2022/05/15 07:02:46;;;;;;;4.03;1.52;;;17.50;69.80;;;;;;4179096;28;20064;-71
2022/05/15 07:04:47;;;;;;;2.58;1.30;;;17.60;70.30;;;;;;4173019;28;20645;-72
2022/05/15 07:06:49;;;;;;;1.25;0.90;;;17.70;69.10;;;;;;4174605;28;20053;-71
2022/05/15 07:08:51;;;;;;;3.38;1.35;;;17.80;69.40;;;;;;4176901;28;20093;-71
2022/05/15 07:10:53;;;;;;;3.35;1.60;;;17.90;68.90;;;;;;4181096;28;20137;-71
2022/05/15 07:12:54;;;;;;;1.42;1.25;;;17.90;69.10;;;;;;4172496;28;20053;-71
2022/05/15 07:14:56;;;;;;;2.95;1.38;;;18.00;68.30;;;;;;4174662;28;20791;-72
2022/05/15 07:16:58;;;;;;;2.25;1.20;;;18.00;69.00;;;;;;4176601;28;20052;-70
2022/05/15 07:19:00;;;;;;;1.95;1.25;;;18.10;68.80;;;;;;4172623;28;20845;-73
2022/05/15 07:21:02;;;;;;;1.52;1.15;;;18.20;67.80;;;;;;4170388;28;20157;-72
2022/05/15 07:23:04;;;;;;;1.77;1.17;;;18.30;69.10;;;;;;4177239;28;20615;-71
2022/05/15 07:25:06;;;;;;;3.08;1.30;;;18.30;68.80;;;;;;4177995;28;20062;-73
2022/05/15 07:27:09;;;;;;;2.80;1.10;;;18.40;67.70;;;;;;4178092;28;20061;-72
2022/05/15 07:29:12;;;;;;;2.50;1.45;;;18.50;66.20;;;;;;4173274;28;20850;-72
2022/05/15 07:31:14;;;;;;;5.25;1.38;;;18.50;65.40;;;;;;4176288;28;20145;-72
2022/05/15 07:33:24;;;;;;;2.38;1.17;;;18.50;66.40;;;;;;4172418;28;20068;-72
2022/05/15 07:35:28;;;;;;;4.55;1.45;;;18.60;67.30;;;;;;4174858;28;20155;-72
2022/05/15 07:37:29;;;;;;;4.72;1.77;;;18.70;66.10;;;;;;4164176;28;20066;-72
2022/05/15 07:39:31;;;;;;;2.67;1.35;;;18.80;65.70;;;;;;4174174;28;20096;-72
2022/05/15 07:41:33;;;;;;;1.70;1.15;;;18.70;65.50;;;;;;4173220;28;20759;-71
2022/05/15 07:43:35;;;;;;;2.00;1.15;;;18.80;63.10;;;;;;4177539;28;20065;-71
2022/05/15 07:45:37;;;;;;;3.50;0.90;;;18.90;62.10;;;;;;4177011;28;20057;-71
2022/05/15 07:47:39;;;;;;;3.70;1.58;;;19.00;62.50;;;;;;4175592;28;20790;-70
2022/05/15 07:49:42;;;;;;;1.85;1.10;;;19.00;60.90;;;;;;4169470;28;20081;-71
2022/05/15 07:51:44;;;;;;;3.88;1.63;;;19.10;61.50;;;;;;4171243;28;20069;-71
2022/05/15 07:53:46;;;;;;;1.80;1.17;;;19.10;62.10;;;;;;4180576;28;20092;-70
2022/05/15 07:55:48;;;;;;;3.22;1.35;;;19.20;62.30;;;;;;4178750;28;20053;-70
2022/05/15 07:57:50;;;;;;;3.80;0.93;;;19.20;61.70;;;;;;4169060;28;20060;-70
2022/05/15 07:59:53;;;;;;;2.47;1.15;;;19.30;62.70;;;;;;4175324;28;20058;-71
2022/05/15 08:01:55;;;;;;;4.40;1.27;;;19.20;63.20;;;;;;4174001;28;20098;-70
2022/05/15 08:03:57;;;;;;;2.03;0.98;;;19.40;61.50;;;;;;4174141;28;20061;-71
2022/05/15 08:08:20;;;;;;;1.45;1.10;;;19.40;62.60;;;;;;4166562;28;20061;-70
2022/05/15 08:10:21;;;;;;;3.10;1.05;;;19.50;62.20;;;;;;4174700;28;20053;-71
2022/05/15 08:12:23;;;;;;;2.47;0.93;;;19.50;60.90;;;;;;4173059;28;20143;-71
2022/05/15 08:14:25;;;;;;;1.48;1.23;;;19.60;61.50;;;;;;4180111;28;20058;-70
2022/05/15 08:16:27;;;;;;;2.95;1.25;;;19.70;60.70;;;;;;4169861;28;20769;-71
2022/05/15 08:25:30;;;;;;;2.15;1.13;;;20.00;59.80;;;;;;4172844;28;20194;-73
2022/05/15 08:27:32;;;;;;;1.83;1.05;;;20.10;59.20;;;;;;4177062;28;20061;-71
2022/05/15 08:29:33;;;;;;;1.67;1.00;;;20.20;60.10;;;;;;4165228;28;20089;-71
2022/05/15 08:31:35;;;;;;;2.40;1.40;;;20.30;59.90;;;;;;4171057;28;20092;-70
2022/05/15 08:33:38;;;;;;;2.28;1.02;;;20.30;59.90;;;;;;4165116;28;20866;-71
2022/05/15 08:35:40;;;;;;;2.40;0.95;;;20.30;58.50;;;;;;4179339;28;20068;-71
2022/05/15 08:37:42;;;;;;;2.45;0.90;;;20.40;59.40;;;;;;4175248;28;20067;-72
2022/05/15 08:39:43;;;;;;;3.10;1.17;;;20.50;58.50;;;;;;4170407;28;20795;-70
2022/05/15 08:42:20;;;;;;;2.42;1.10;;;20.50;58.50;;;;;;4177410;28;20066;-70
2022/05/15 08:44:29;;;;;;;4.78;1.40;;;20.50;58.30;;;;;;4168391;28;20140;-71
2022/05/15 08:46:56;;;;;;;2.08;1.10;;;20.50;58.80;;;;;;4179262;28;20664;-71
2022/05/15 08:49:20;;;;;;;3.38;1.23;;;20.50;59.40;;;;;;4172718;28;20061;-71
2022/05/15 08:51:22;;;;;;;1.58;0.80;;;20.70;58.90;;;;;;4168671;28;20054;-71
2022/05/15 08:53:33;;;;;;;1.63;0.82;;;20.70;58.40;;;;;;4169044;28;20638;-71
2022/05/15 08:55:43;;;;;;;2.25;0.90;;;20.70;57.30;;;;;;4170231;28;20061;-71
2022/05/15 08:57:55;;;;;;;4.68;1.02;;;20.70;57.20;;;;;;4174120;28;20109;-72
2022/05/15 08:59:58;;;;;;;1.27;0.90;;;20.80;56.90;;;;;;4173760;28;20123;-71
2022/05/15 09:02:01;;;;;;;4.93;1.35;;;20.70;57.00;;;;;;4173851;28;20180;-73
2022/05/15 09:04:03;;;;;;;3.95;1.23;;;20.80;56.70;;;;;;4173019;28;20917;-71
2022/05/15 09:06:37;;;;;;;2.92;1.20;;;20.70;56.60;;;;;;4173594;28;20181;-72
2022/05/15 09:08:54;;;;;;;2.65;1.30;;;20.80;56.40;;;;;;4166260;28;20097;-70
2022/05/15 09:11:03;;;;;;;6.18;1.10;;;20.80;57.20;;;;;;4169994;28;20100;-71
2022/05/15 09:13:21;;;;;;;4.40;0.90;;;20.90;56.90;;;;;;4174108;28;20061;-71
2022/05/15 09:15:28;;;;;;;2.03;1.48;;;20.90;57.10;;;;;;4164218;28;20064;-71
2022/05/15 09:17:41;;;;;;;2.00;1.15;;;21.00;56.90;;;;;;4170925;28;20093;-72
2022/05/15 09:19:43;;;;;;;2.70;1.02;;;21.00;57.60;;;;;;4175741;28;20160;-70
2022/05/15 09:21:45;;;;;;;4.38;1.05;;;21.20;56.10;;;;;;4179830;28;20152;-70
2022/05/15 09:23:53;;;;;;;2.10;1.10;;;21.30;56.70;;;;;;4175899;28;20068;-70
2022/05/15 09:26:20;;;;;;;2.05;1.55;;;21.50;55.40;;;;;;4172707;28;20058;-71
2022/05/15 09:28:26;;;;;;;2.85;1.25;;;21.60;56.00;;;;;;4161000;28;21133;-71
2022/05/15 09:30:39;;;;;;;1.40;0.90;;;21.60;55.90;;;;;;4168805;28;20057;-72
2022/05/15 09:32:44;;;;;;;2.40;1.23;;;21.60;54.90;;;;;;4167806;28;20661;-70
2022/05/15 09:34:46;;;;;;;2.00;0.80;;;21.60;55.20;;;;;;4171467;28;21020;-71
2022/05/15 09:36:52;;;;;;;0.85;0.80;;;21.70;54.60;;;;;;4171200;28;20054;-71
2022/05/15 09:39:47;;;;;;;1.80;0.90;;;21.70;54.10;;;;;;4168050;28;20172;-72
2022/05/15 09:44:45;;;;;;;2.42;1.40;;;21.90;55.10;;;;;;4171147;28;20825;-72
2022/05/15 09:46:57;;;;;;;3.72;1.20;;;22.10;55.10;;;;;;4164119;28;20062;-71
2022/05/15 09:49:12;;;;;;;1.70;0.80;;;22.00;55.50;;;;;;4171516;28;20057;-70
2022/05/15 09:51:40;;;;;;;2.25;1.00;;;22.00;54.90;;;;;;4169893;28;20123;-70
2022/05/15 09:53:51;;;;;;;6.18;1.48;;;21.90;54.50;;;;;;4170666;28;20160;-71
2022/05/15 09:56:19;;;;;;;1.65;0.90;;;21.90;55.80;;;;;;4178362;28;20076;-73
2022/05/15 09:58:20;;;;;;;4.80;1.40;;;22.10;55.50;;;;;;4172016;28;20058;-71
2022/05/15 10:00:25;;;;;;;1.02;0.90;;;22.20;53.70;;;;;;4174854;28;20054;-72
2022/05/15 10:02:43;;;;;;;1.85;1.10;;;22.30;53.20;;;;;;4170362;28;20771;-72
2022/05/15 10:04:48;;;;;;;1.55;1.00;;;22.40;54.00;;;;;;4166846;28;20765;-70
2022/05/15 10:06:58;;;;;;;2.05;0.70;;;22.40;54.60;;;;;;4174191;28;20097;-71
2022/05/15 10:09:08;;;;;;;2.28;1.10;;;22.40;54.90;;;;;;4174916;28;20180;-71
2022/05/15 10:11:17;;;;;;;1.13;0.90;;;22.40;53.70;;;;;;4173796;28;20058;-72
2022/05/15 10:13:34;;;;;;;2.85;1.10;;;22.40;53.80;;;;;;4166564;28;20061;-71
2022/05/15 10:15:41;;;;;;;1.77;0.90;;;22.50;53.00;;;;;;4167095;28;20723;-71
2022/05/15 10:17:50;;;;;;;1.27;1.00;;;22.70;51.30;;;;;;4167977;28;20057;-73
2022/05/15 10:20:00;;;;;;;2.20;1.13;;;22.70;52.50;;;;;;4179050;28;20164;-70
2022/05/15 10:22:25;;;;;;;2.17;1.20;;;22.70;52.50;;;;;;4168001;28;20094;-71
2022/05/15 10:24:47;;;;;;;3.50;1.48;;;22.80;53.00;;;;;;4171493;28;20065;-71
2022/05/15 10:27:10;;;;;;;3.42;0.90;;;22.90;52.00;;;;;;4170884;28;20192;-71
2022/05/15 10:29:42;;;;;;;3.20;1.35;;;22.80;52.40;;;;;;4177577;28;20687;-70
2022/05/15 10:32:11;;;;;;;1.10;1.00;;;22.70;51.60;;;;;;4171605;28;20058;-71
2022/05/15 10:34:15;;;;;;;1.90;1.05;;;22.70;51.90;;;;;;4171824;28;20148;-71
2022/05/15 10:36:24;;;;;;;1.77;1.05;;;22.70;50.90;;;;;;4179975;28;20227;-70
2022/05/15 10:38:37;;;;;;;1.00;0.75;;;22.60;51.60;;;;;;4172255;28;20064;-71
2022/05/15 10:40:48;;;;;;;2.13;1.00;;;22.70;51.70;;;;;;4174529;28;20486;-70
2022/05/15 10:43:21;;;;;;;1.77;0.90;;;22.80;50.90;;;;;;4168683;28;20061;-72
2022/05/15 10:45:48;;;;;;;1.52;0.73;;;22.90;51.80;;;;;;4175836;28;20151;-72
2022/05/15 10:48:19;;;;;;;0.77;0.75;;;23.00;50.90;;;;;;4168760;28;20057;-70
2022/05/15 10:50:27;;;;;;;2.03;0.93;;;23.10;51.20;;;;;;4172705;28;20172;-72
2022/05/15 10:52:42;;;;;;;1.88;0.90;;;23.20;51.00;;;;;;4169346;28;20165;-72
2022/05/15 10:57:32;;;;;;;0.85;0.70;;;23.20;49.10;;;;;;4176169;28;20782;-72
2022/05/15 10:59:39;;;;;;;6.22;1.30;;;23.20;49.40;;;;;;4168313;28;20057;-70
2022/05/15 11:01:52;;;;;;;1.55;0.90;;;23.20;50.00;;;;;;4171115;28;20867;-70
2022/05/15 11:04:05;;;;;;;2.88;1.48;;;23.20;49.70;;;;;;4175877;28;20818;-72
2022/05/15 11:06:30;;;;;;;3.03;0.88;;;23.20;49.40;;;;;;4172459;28;20137;-72
2022/05/15 11:09:09;;;;;;;4.07;1.25;;;23.30;49.10;;;;;;4165619;28;20149;-70